sensor_id;sensor_type;location;lat;lon;timestamp;pressure;altitude;pressure_sealevel;temperature;humidity
36972;BME280;40554;52.122;20.678;2023-02-02T00:02:06;99217.95;;;1.65;100.00
36972;BME280;40554;52.122;20.678;2023-02-02T00:04:28;99213.77;;;1.65;100.00
36972;BME280;40554;52.122;20.678;2023-02-02T00:06:45;99215.33;;;1.65;100.00
36972;BME280;40554;52.122;20.678;2023-02-02T00:09:02;99221.27;;;1.64;100.00
36972;BME280;40554;52.122;20.678;2023-02-02T00:11:19;99215.00;;;1.64;100.00
36972;BME280;40554;52.122;20.678;2023-02-02T00:13:36;99214.64;;;1.65;100.00
36972;BME280;40554;52.122;20.678;2023-02-02T00:15:53;99221.64;;;1.64;100.00
36972;BME280;40554;52.122;20.678;2023-02-02T00:18:09;99225.31;;;1.64;100.00
36972;BME280;40554;52.122;20.678;2023-02-02T00:20:26;99230.11;;;1.65;100.00
36972;BME280;40554;52.122;20.678;2023-02-02T00:22:42;99226.79;;;1.65;100.00
36972;BME280;40554;52.122;20.678;2023-02-02T00:24:59;99221.02;;;1.66;100.00
36972;BME280;40554;52.122;20.678;2023-02-02T00:27:15;99215.79;;;1.66;100.00
36972;BME280;40554;52.122;20.678;2023-02-02T00:29:32;99214.94;;;1.66;100.00
36972;BME280;40554;52.122;20.678;2023-02-02T00:31:50;99211.10;;;1.66;100.00
36972;BME280;40554;52.122;20.678;2023-02-02T00:34:08;99213.36;;;1.66;100.00
36972;BME280;40554;52.122;20.678;2023-02-02T00:36:25;99204.81;;;1.66;100.00
36972;BME280;40554;52.122;20.678;2023-02-02T00:38:41;99203.56;;;1.67;100.00
36972;BME280;40554;52.122;20.678;2023-02-02T00:40:58;99201.94;;;1.68;100.00
36972;BME280;40554;52.122;20.678;2023-02-02T00:43:15;99201.25;;;1.68;100.00
36972;BME280;40554;52.122;20.678;2023-02-02T00:45:31;99195.84;;;1.68;100.00
36972;BME280;40554;52.122;20.678;2023-02-02T00:47:48;99196.88;;;1.68;100.00
36972;BME280;40554;52.122;20.678;2023-02-02T00:50:05;99199.10;;;1.69;100.00
36972;BME280;40554;52.122;20.678;2023-02-02T00:52:22;99196.63;;;1.69;100.00
36972;BME280;40554;52.122;20.678;2023-02-02T00:54:38;99191.73;;;1.70;100.00
36972;BME280;40554;52.122;20.678;2023-02-02T00:56:55;99190.84;;;1.70;100.00
36972;BME280;40554;52.122;20.678;2023-02-02T00:59:11;99188.61;;;1.70;100.00
36972;BME280;40554;52.122;20.678;2023-02-02T01:01:28;99183.70;;;1.70;100.00
36972;BME280;40554;52.122;20.678;2023-02-02T01:03:44;99183.19;;;1.70;100.00
36972;BME280;40554;52.122;20.678;2023-02-02T01:06:01;99181.91;;;1.71;100.00
36972;BME280;40554;52.122;20.678;2023-02-02T01:08:17;99184.33;;;1.71;100.00
36972;BME280;40554;52.122;20.678;2023-02-02T01:10:34;99184.67;;;1.71;100.00
36972;BME280;40554;52.122;20.678;2023-02-02T01:12:51;99177.48;;;1.72;100.00
36972;BME280;40554;52.122;20.678;2023-02-02T01:15:09;99177.15;;;1.72;100.00
36972;BME280;40554;52.122;20.678;2023-02-02T01:17:26;99172.61;;;1.72;100.00
36972;BME280;40554;52.122;20.678;2023-02-02T01:19:42;99176.31;;;1.71;100.00
36972;BME280;40554;52.122;20.678;2023-02-02T01:21:59;99176.66;;;1.71;100.00
36972;BME280;40554;52.122;20.678;2023-02-02T01:24:16;99175.45;;;1.71;100.00
36972;BME280;40554;52.122;20.678;2023-02-02T01:26:32;99175.31;;;1.70;100.00
36972;BME280;40554;52.122;20.678;2023-02-02T01:28:49;99174.45;;;1.70;100.00
36972;BME280;40554;52.122;20.678;2023-02-02T01:31:08;99176.56;;;1.70;100.00
36972;BME280;40554;52.122;20.678;2023-02-02T01:33:27;99174.21;;;1.68;100.00
36972;BME280;40554;52.122;20.678;2023-02-02T01:35:46;99177.02;;;1.68;100.00
36972;BME280;40554;52.122;20.678;2023-02-02T01:38:03;99172.52;;;1.67;100.00
36972;BME280;40554;52.122;20.678;2023-02-02T01:40:19;99180.01;;;1.67;100.00
36972;BME280;40554;52.122;20.678;2023-02-02T01:42:36;99180.70;;;1.67;100.00
36972;BME280;40554;52.122;20.678;2023-02-02T01:47:31;99183.67;;;1.67;100.00
36972;BME280;40554;52.122;20.678;2023-02-02T01:49:49;99179.63;;;1.68;100.00
36972;BME280;40554;52.122;20.678;2023-02-02T01:52:07;99186.76;;;1.68;100.00
36972;BME280;40554;52.122;20.678;2023-02-02T01:56:51;99188.02;;;1.67;100.00
36972;BME280;40554;52.122;20.678;2023-02-02T01:59:11;99190.27;;;1.68;100.00
36972;BME280;40554;52.122;20.678;2023-02-02T02:01:30;99193.77;;;1.67;100.00
36972;BME280;40554;52.122;20.678;2023-02-02T02:03:46;99194.13;;;1.67;100.00
36972;BME280;40554;52.122;20.678;2023-02-02T02:06:10;99197.13;;;1.67;100.00
36972;BME280;40554;52.122;20.678;2023-02-02T02:08:30;99199.39;;;1.67;100.00
36972;BME280;40554;52.122;20.678;2023-02-02T02:10:49;99197.82;;;1.67;100.00
36972;BME280;40554;52.122;20.678;2023-02-02T02:13:06;99199.61;;;1.66;100.00
36972;BME280;40554;52.122;20.678;2023-02-02T02:15:22;99199.49;;;1.65;100.00
36972;BME280;40554;52.122;20.678;2023-02-02T02:20:42;99200.67;;;1.65;100.00
36972;BME280;40554;52.122;20.678;2023-02-02T02:26:55;99202.59;;;1.65;100.00
36972;BME280;40554;52.122;20.678;2023-02-02T02:29:30;99204.81;;;1.66;100.00
36972;BME280;40554;52.122;20.678;2023-02-02T02:32:17;99199.68;;;1.67;100.00
36972;BME280;40554;52.122;20.678;2023-02-02T02:39:19;99197.23;;;1.71;100.00
36972;BME280;40554;52.122;20.678;2023-02-02T02:41:45;99189.35;;;1.72;100.00
36972;BME280;40554;52.122;20.678;2023-02-02T02:44:09;99197.50;;;1.73;100.00
36972;BME280;40554;52.122;20.678;2023-02-02T02:46:26;99194.49;;;1.74;100.00
36972;BME280;40554;52.122;20.678;2023-02-02T02:48:44;99195.14;;;1.75;100.00
36972;BME280;40554;52.122;20.678;2023-02-02T02:51:33;99199.42;;;1.76;100.00
36972;BME280;40554;52.122;20.678;2023-02-02T02:53:44;99199.57;;;1.77;100.00
36972;BME280;40554;52.122;20.678;2023-02-02T02:56:13;99197.36;;;1.78;100.00
36972;BME280;40554;52.122;20.678;2023-02-02T02:58:54;99190.00;;;1.80;100.00
36972;BME280;40554;52.122;20.678;2023-02-02T03:01:20;99188.88;;;1.81;100.00
36972;BME280;40554;52.122;20.678;2023-02-02T03:07:05;99198.34;;;1.84;100.00
36972;BME280;40554;52.122;20.678;2023-02-02T03:09:33;99200.52;;;1.85;100.00
36972;BME280;40554;52.122;20.678;2023-02-02T03:11:51;99198.55;;;1.86;100.00
36972;BME280;40554;52.122;20.678;2023-02-02T03:14:07;99204.56;;;1.88;100.00
36972;BME280;40554;52.122;20.678;2023-02-02T03:16:24;99202.79;;;1.89;100.00
36972;BME280;40554;52.122;20.678;2023-02-02T03:18:41;99207.27;;;1.89;100.00
36972;BME280;40554;52.122;20.678;2023-02-02T03:20:58;99208.48;;;1.90;100.00
36972;BME280;40554;52.122;20.678;2023-02-02T03:23:14;99205.32;;;1.90;100.00
36972;BME280;40554;52.122;20.678;2023-02-02T03:25:31;99209.46;;;1.91;100.00
36972;BME280;40554;52.122;20.678;2023-02-02T03:27:47;99209.58;;;1.92;100.00
36972;BME280;40554;52.122;20.678;2023-02-02T03:30:06;99212.86;;;1.92;100.00
36972;BME280;40554;52.122;20.678;2023-02-02T03:32:25;99214.85;;;1.94;100.00
36972;BME280;40554;52.122;20.678;2023-02-02T03:34:42;99216.02;;;1.95;100.00
36972;BME280;40554;52.122;20.678;2023-02-02T03:36:59;99215.64;;;1.96;100.00
36972;BME280;40554;52.122;20.678;2023-02-02T03:39:15;99215.60;;;1.97;100.00
36972;BME280;40554;52.122;20.678;2023-02-02T03:41:31;99217.65;;;1.98;100.00
36972;BME280;40554;52.122;20.678;2023-02-02T03:43:48;99215.87;;;1.98;100.00
36972;BME280;40554;52.122;20.678;2023-02-02T03:46:05;99213.55;;;1.99;100.00
36972;BME280;40554;52.122;20.678;2023-02-02T03:48:21;99214.52;;;2.01;100.00
36972;BME280;40554;52.122;20.678;2023-02-02T03:50:38;99210.66;;;2.02;100.00
36972;BME280;40554;52.122;20.678;2023-02-02T03:52:54;99206.05;;;2.03;100.00
36972;BME280;40554;52.122;20.678;2023-02-02T03:55:10;99204.78;;;2.04;100.00
36972;BME280;40554;52.122;20.678;2023-02-02T03:57:27;99203.35;;;2.05;100.00
36972;BME280;40554;52.122;20.678;2023-02-02T03:59:43;99208.58;;;2.05;100.00
36972;BME280;40554;52.122;20.678;2023-02-02T04:02:00;99205.02;;;2.06;100.00
36972;BME280;40554;52.122;20.678;2023-02-02T04:04:16;99208.27;;;2.07;100.00
36972;BME280;40554;52.122;20.678;2023-02-02T04:06:32;99205.98;;;2.08;100.00
36972;BME280;40554;52.122;20.678;2023-02-02T04:08:49;99204.06;;;2.08;100.00
36972;BME280;40554;52.122;20.678;2023-02-02T04:11:09;99205.05;;;2.09;100.00
36972;BME280;40554;52.122;20.678;2023-02-02T04:13:25;99206.14;;;2.08;100.00
36972;BME280;40554;52.122;20.678;2023-02-02T04:15:42;99208.42;;;2.08;100.00
36972;BME280;40554;52.122;20.678;2023-02-02T04:17:58;99207.33;;;2.09;100.00
36972;BME280;40554;52.122;20.678;2023-02-02T04:20:15;99205.94;;;2.09;100.00
36972;BME280;40554;52.122;20.678;2023-02-02T04:22:32;99204.51;;;2.09;100.00
36972;BME280;40554;52.122;20.678;2023-02-02T04:24:49;99208.49;;;2.10;100.00
36972;BME280;40554;52.122;20.678;2023-02-02T04:27:05;99207.79;;;2.10;100.00
36972;BME280;40554;52.122;20.678;2023-02-02T04:29:22;99207.84;;;2.09;100.00
36972;BME280;40554;52.122;20.678;2023-02-02T04:31:38;99209.41;;;2.09;100.00
36972;BME280;40554;52.122;20.678;2023-02-02T04:33:55;99211.23;;;2.08;100.00
36972;BME280;40554;52.122;20.678;2023-02-02T04:36:12;99209.34;;;2.07;100.00
36972;BME280;40554;52.122;20.678;2023-02-02T04:38:28;99214.54;;;2.08;100.00
36972;BME280;40554;52.122;20.678;2023-02-02T04:40:47;99210.89;;;2.08;100.00
36972;BME280;40554;52.122;20.678;2023-02-02T04:43:03;99207.71;;;2.08;100.00
36972;BME280;40554;52.122;20.678;2023-02-02T04:45:20;99207.20;;;2.08;100.00
36972;BME280;40554;52.122;20.678;2023-02-02T04:47:36;99205.11;;;2.08;100.00
36972;BME280;40554;52.122;20.678;2023-02-02T04:49:52;99202.13;;;2.08;100.00
36972;BME280;40554;52.122;20.678;2023-02-02T04:52:12;99204.27;;;2.07;100.00
36972;BME280;40554;52.122;20.678;2023-02-02T04:54:28;99199.56;;;2.07;100.00
36972;BME280;40554;52.122;20.678;2023-02-02T04:56:45;99199.08;;;2.07;100.00
36972;BME280;40554;52.122;20.678;2023-02-02T04:59:02;99200.29;;;2.07;100.00
36972;BME280;40554;52.122;20.678;2023-02-02T05:01:19;99200.11;;;2.07;100.00
36972;BME280;40554;52.122;20.678;2023-02-02T05:03:36;99200.95;;;2.08;100.00
36972;BME280;40554;52.122;20.678;2023-02-02T05:06:00;99202.52;;;2.07;100.00
36972;BME280;40554;52.122;20.678;2023-02-02T05:08:17;99206.52;;;2.07;100.00
36972;BME280;40554;52.122;20.678;2023-02-02T05:10:34;99206.13;;;2.08;100.00
36972;BME280;40554;52.122;20.678;2023-02-02T05:12:54;99203.20;;;2.08;100.00
36972;BME280;40554;52.122;20.678;2023-02-02T05:15:10;99199.34;;;2.08;100.00
36972;BME280;40554;52.122;20.678;2023-02-02T05:17:26;99202.13;;;2.08;100.00
36972;BME280;40554;52.122;20.678;2023-02-02T05:19:43;99200.76;;;2.08;100.00
36972;BME280;40554;52.122;20.678;2023-02-02T05:21:59;99200.23;;;2.08;100.00
36972;BME280;40554;52.122;20.678;2023-02-02T05:24:16;99197.40;;;2.09;100.00
36972;BME280;40554;52.122;20.678;2023-02-02T05:26:32;99199.66;;;2.09;100.00
36972;BME280;40554;52.122;20.678;2023-02-02T05:28:49;99195.26;;;2.10;100.00
36972;BME280;40554;52.122;20.678;2023-02-02T05:31:06;99195.96;;;2.09;100.00
36972;BME280;40554;52.122;20.678;2023-02-02T05:33:22;99195.27;;;2.10;100.00
36972;BME280;40554;52.122;20.678;2023-02-02T05:35:39;99194.56;;;2.10;100.00
36972;BME280;40554;52.122;20.678;2023-02-02T05:37:55;99194.17;;;2.10;100.00
36972;BME280;40554;52.122;20.678;2023-02-02T05:40:14;99194.98;;;2.12;100.00
36972;BME280;40554;52.122;20.678;2023-02-02T05:42:31;99192.01;;;2.11;100.00
36972;BME280;40554;52.122;20.678;2023-02-02T05:44:47;99190.95;;;2.12;100.00
36972;BME280;40554;52.122;20.678;2023-02-02T05:47:04;99190.08;;;2.12;100.00
36972;BME280;40554;52.122;20.678;2023-02-02T05:49:20;99185.73;;;2.12;100.00
36972;BME280;40554;52.122;20.678;2023-02-02T05:51:40;99183.27;;;2.12;100.00
36972;BME280;40554;52.122;20.678;2023-02-02T05:53:58;99179.98;;;2.11;100.00
36972;BME280;40554;52.122;20.678;2023-02-02T05:56:16;99175.27;;;2.12;100.00
36972;BME280;40554;52.122;20.678;2023-02-02T05:58:33;99178.97;;;2.11;100.00
36972;BME280;40554;52.122;20.678;2023-02-02T06:00:49;99177.09;;;2.10;100.00
36972;BME280;40554;52.122;20.678;2023-02-02T06:03:05;99172.09;;;2.09;100.00
36972;BME280;40554;52.122;20.678;2023-02-02T06:05:22;99172.89;;;2.07;100.00
36972;BME280;40554;52.122;20.678;2023-02-02T06:07:39;99173.26;;;2.07;100.00
36972;BME280;40554;52.122;20.678;2023-02-02T06:09:55;99175.53;;;2.07;100.00
36972;BME280;40554;52.122;20.678;2023-02-02T06:12:11;99176.91;;;2.07;100.00
36972;BME280;40554;52.122;20.678;2023-02-02T06:14:28;99174.77;;;2.08;100.00
36972;BME280;40554;52.122;20.678;2023-02-02T06:16:44;99177.88;;;2.09;100.00
36972;BME280;40554;52.122;20.678;2023-02-02T06:19:01;99176.09;;;2.09;100.00
36972;BME280;40554;52.122;20.678;2023-02-02T06:21:18;99176.69;;;2.11;100.00
36972;BME280;40554;52.122;20.678;2023-02-02T06:23:39;99176.30;;;2.12;100.00
36972;BME280;40554;52.122;20.678;2023-02-02T06:26:01;99176.30;;;2.12;100.00
36972;BME280;40554;52.122;20.678;2023-02-02T06:28:19;99169.13;;;2.12;100.00
36972;BME280;40554;52.122;20.678;2023-02-02T06:30:35;99165.63;;;2.13;100.00
36972;BME280;40554;52.122;20.678;2023-02-02T06:32:51;99165.61;;;2.13;100.00
36972;BME280;40554;52.122;20.678;2023-02-02T06:35:08;99167.16;;;2.13;100.00
36972;BME280;40554;52.122;20.678;2023-02-02T06:37:24;99166.79;;;2.14;100.00
36972;BME280;40554;52.122;20.678;2023-02-02T06:39:41;99161.72;;;2.14;100.00
36972;BME280;40554;52.122;20.678;2023-02-02T06:41:57;99160.13;;;2.14;100.00
36972;BME280;40554;52.122;20.678;2023-02-02T06:44:15;99153.48;;;2.15;100.00
36972;BME280;40554;52.122;20.678;2023-02-02T06:46:34;99154.29;;;2.16;100.00
36972;BME280;40554;52.122;20.678;2023-02-02T06:48:50;99156.16;;;2.17;100.00
36972;BME280;40554;52.122;20.678;2023-02-02T06:51:07;99152.55;;;2.16;100.00
36972;BME280;40554;52.122;20.678;2023-02-02T06:53:24;99151.67;;;2.16;100.00
36972;BME280;40554;52.122;20.678;2023-02-02T06:55:41;99152.27;;;2.14;100.00
36972;BME280;40554;52.122;20.678;2023-02-02T06:57:59;99151.86;;;2.12;100.00
36972;BME280;40554;52.122;20.678;2023-02-02T07:00:16;99152.86;;;2.10;100.00
36972;BME280;40554;52.122;20.678;2023-02-02T07:02:35;99145.12;;;2.08;100.00
36972;BME280;40554;52.122;20.678;2023-02-02T07:04:51;99148.52;;;2.07;100.00
36972;BME280;40554;52.122;20.678;2023-02-02T07:07:08;99143.85;;;2.06;100.00
36972;BME280;40554;52.122;20.678;2023-02-02T07:09:24;99142.02;;;2.04;100.00
36972;BME280;40554;52.122;20.678;2023-02-02T07:11:40;99145.98;;;2.02;100.00
36972;BME280;40554;52.122;20.678;2023-02-02T07:13:58;99144.55;;;1.99;100.00
36972;BME280;40554;52.122;20.678;2023-02-02T07:16:15;99145.39;;;1.97;100.00
36972;BME280;40554;52.122;20.678;2023-02-02T07:18:32;99146.11;;;1.95;100.00
36972;BME280;40554;52.122;20.678;2023-02-02T07:20:49;99146.14;;;1.95;100.00
36972;BME280;40554;52.122;20.678;2023-02-02T07:23:05;99151.07;;;1.94;100.00
36972;BME280;40554;52.122;20.678;2023-02-02T07:25:22;99146.98;;;1.92;100.00
36972;BME280;40554;52.122;20.678;2023-02-02T07:27:39;99148.76;;;1.92;100.00
36972;BME280;40554;52.122;20.678;2023-02-02T07:29:55;99148.81;;;1.91;100.00
36972;BME280;40554;52.122;20.678;2023-02-02T07:32:11;99147.27;;;1.87;100.00
36972;BME280;40554;52.122;20.678;2023-02-02T07:34:28;99148.54;;;1.83;100.00
36972;BME280;40554;52.122;20.678;2023-02-02T07:36:44;99145.33;;;1.81;100.00
36972;BME280;40554;52.122;20.678;2023-02-02T07:39:02;99143.85;;;1.79;100.00
36972;BME280;40554;52.122;20.678;2023-02-02T07:41:20;99142.55;;;1.77;100.00
36972;BME280;40554;52.122;20.678;2023-02-02T07:43:37;99144.71;;;1.76;100.00
36972;BME280;40554;52.122;20.678;2023-02-02T07:45:57;99142.05;;;1.74;100.00
36972;BME280;40554;52.122;20.678;2023-02-02T07:48:16;99144.83;;;1.70;100.00
36972;BME280;40554;52.122;20.678;2023-02-02T07:50:33;99145.27;;;1.69;100.00
36972;BME280;40554;52.122;20.678;2023-02-02T07:52:49;99144.86;;;1.67;100.00
36972;BME280;40554;52.122;20.678;2023-02-02T07:55:07;99144.06;;;1.65;100.00
36972;BME280;40554;52.122;20.678;2023-02-02T07:57:32;99143.80;;;1.63;100.00
36972;BME280;40554;52.122;20.678;2023-02-02T07:59:49;99145.67;;;1.61;100.00
36972;BME280;40554;52.122;20.678;2023-02-02T08:02:05;99148.89;;;1.59;100.00
36972;BME280;40554;52.122;20.678;2023-02-02T08:04:21;99153.14;;;1.58;100.00
36972;BME280;40554;52.122;20.678;2023-02-02T08:06:39;99149.80;;;1.59;100.00
36972;BME280;40554;52.122;20.678;2023-02-02T08:08:56;99149.82;;;1.58;100.00
36972;BME280;40554;52.122;20.678;2023-02-02T08:11:15;99151.88;;;1.59;100.00
36972;BME280;40554;52.122;20.678;2023-02-02T08:13:31;99152.00;;;1.60;100.00
36972;BME280;40554;52.122;20.678;2023-02-02T08:15:48;99153.55;;;1.60;100.00
36972;BME280;40554;52.122;20.678;2023-02-02T08:18:04;99153.72;;;1.60;100.00
36972;BME280;40554;52.122;20.678;2023-02-02T08:20:20;99155.42;;;1.58;100.00
36972;BME280;40554;52.122;20.678;2023-02-02T08:22:37;99155.64;;;1.57;100.00
36972;BME280;40554;52.122;20.678;2023-02-02T08:24:54;99158.60;;;1.57;100.00
36972;BME280;40554;52.122;20.678;2023-02-02T08:27:10;99158.45;;;1.56;100.00
36972;BME280;40554;52.122;20.678;2023-02-02T08:32:18;99161.95;;;1.56;100.00
36972;BME280;40554;52.122;20.678;2023-02-02T08:34:35;99163.75;;;1.58;100.00
36972;BME280;40554;52.122;20.678;2023-02-02T08:36:52;99168.36;;;1.60;100.00
36972;BME280;40554;52.122;20.678;2023-02-02T08:39:12;99172.28;;;1.62;100.00
36972;BME280;40554;52.122;20.678;2023-02-02T08:41:30;99170.65;;;1.63;100.00
36972;BME280;40554;52.122;20.678;2023-02-02T08:43:47;99177.88;;;1.65;100.00
36972;BME280;40554;52.122;20.678;2023-02-02T08:46:05;99175.66;;;1.67;100.00
36972;BME280;40554;52.122;20.678;2023-02-02T08:48:21;99174.97;;;1.70;100.00
36972;BME280;40554;52.122;20.678;2023-02-02T08:50:38;99177.25;;;1.74;100.00
36972;BME280;40554;52.122;20.678;2023-02-02T08:52:55;99176.22;;;1.76;100.00
36972;BME280;40554;52.122;20.678;2023-02-02T08:55:11;99178.83;;;1.80;100.00
36972;BME280;40554;52.122;20.678;2023-02-02T08:57:29;99180.70;;;1.84;100.00
36972;BME280;40554;52.122;20.678;2023-02-02T08:59:47;99182.30;;;1.87;100.00
36972;BME280;40554;52.122;20.678;2023-02-02T09:02:04;99186.53;;;1.89;100.00
36972;BME280;40554;52.122;20.678;2023-02-02T09:04:20;99186.74;;;1.92;100.00
36972;BME280;40554;52.122;20.678;2023-02-02T09:06:39;99188.09;;;1.93;100.00
36972;BME280;40554;52.122;20.678;2023-02-02T09:08:56;99186.34;;;1.93;100.00
36972;BME280;40554;52.122;20.678;2023-02-02T09:11:17;99191.20;;;1.93;100.00
36972;BME280;40554;52.122;20.678;2023-02-02T09:13:35;99187.95;;;1.92;100.00
36972;BME280;40554;52.122;20.678;2023-02-02T09:15:51;99197.50;;;1.93;100.00
36972;BME280;40554;52.122;20.678;2023-02-02T09:18:08;99199.98;;;1.95;100.00
36972;BME280;40554;52.122;20.678;2023-02-02T09:20:24;99204.35;;;1.95;100.00
36972;BME280;40554;52.122;20.678;2023-02-02T09:22:40;99204.55;;;1.95;100.00
36972;BME280;40554;52.122;20.678;2023-02-02T09:24:57;99206.79;;;1.95;100.00
36972;BME280;40554;52.122;20.678;2023-02-02T09:27:13;99214.62;;;1.95;100.00
36972;BME280;40554;52.122;20.678;2023-02-02T09:29:30;99219.63;;;1.96;100.00
36972;BME280;40554;52.122;20.678;2023-02-02T09:31:46;99226.18;;;1.98;100.00
36972;BME280;40554;52.122;20.678;2023-02-02T09:34:05;99226.50;;;1.98;100.00
36972;BME280;40554;52.122;20.678;2023-02-02T09:36:23;99235.20;;;1.99;100.00
36972;BME280;40554;52.122;20.678;2023-02-02T09:38:42;99239.79;;;1.98;100.00
36972;BME280;40554;52.122;20.678;2023-02-02T09:41:00;99244.66;;;1.98;100.00
36972;BME280;40554;52.122;20.678;2023-02-02T09:43:47;99248.98;;;1.99;100.00
36972;BME280;40554;52.122;20.678;2023-02-02T09:46:29;99256.55;;;2.01;100.00
36972;BME280;40554;52.122;20.678;2023-02-02T09:49:00;99260.71;;;2.01;100.00
36972;BME280;40554;52.122;20.678;2023-02-02T09:51:20;99267.29;;;2.03;100.00
36972;BME280;40554;52.122;20.678;2023-02-02T09:53:48;99274.60;;;2.06;100.00
36972;BME280;40554;52.122;20.678;2023-02-02T09:56:23;99279.02;;;2.08;100.00
36972;BME280;40554;52.122;20.678;2023-02-02T09:58:48;99279.45;;;2.10;100.00
36972;BME280;40554;52.122;20.678;2023-02-02T10:01:23;99285.06;;;2.13;100.00
36972;BME280;40554;52.122;20.678;2023-02-02T10:04:11;99285.29;;;2.15;100.00
36972;BME280;40554;52.122;20.678;2023-02-02T10:06:51;99292.41;;;2.19;100.00
36972;BME280;40554;52.122;20.678;2023-02-02T10:12:02;99304.42;;;2.29;100.00
36972;BME280;40554;52.122;20.678;2023-02-02T10:15:13;99301.20;;;2.34;100.00
36972;BME280;40554;52.122;20.678;2023-02-02T10:19:38;99309.11;;;2.40;100.00
36972;BME280;40554;52.122;20.678;2023-02-02T10:22:13;99314.38;;;2.42;100.00
36972;BME280;40554;52.122;20.678;2023-02-02T10:24:33;99316.06;;;2.43;100.00
36972;BME280;40554;52.122;20.678;2023-02-02T10:26:54;99318.56;;;2.46;100.00
36972;BME280;40554;52.122;20.678;2023-02-02T10:29:15;99319.14;;;2.49;100.00
36972;BME280;40554;52.122;20.678;2023-02-02T10:34:19;99323.80;;;2.59;100.00
36972;BME280;40554;52.122;20.678;2023-02-02T10:41:53;99337.49;;;2.75;100.00
36972;BME280;40554;52.122;20.678;2023-02-02T10:44:36;99339.45;;;2.80;100.00
36972;BME280;40554;52.122;20.678;2023-02-02T10:46:56;99344.98;;;2.84;100.00
36972;BME280;40554;52.122;20.678;2023-02-02T10:49:38;99350.84;;;2.86;100.00
36972;BME280;40554;52.122;20.678;2023-02-02T10:52:13;99353.95;;;2.86;100.00
36972;BME280;40554;52.122;20.678;2023-02-02T10:54:50;99358.14;;;2.83;100.00
36972;BME280;40554;52.122;20.678;2023-02-02T10:57:18;99367.09;;;2.83;100.00
36972;BME280;40554;52.122;20.678;2023-02-02T11:00:34;99374.13;;;2.81;100.00
36972;BME280;40554;52.122;20.678;2023-02-02T11:02:24;99378.92;;;2.80;100.00
36972;BME280;40554;52.122;20.678;2023-02-02T11:04:41;99380.89;;;2.79;100.00
36972;BME280;40554;52.122;20.678;2023-02-02T11:07:16;99384.84;;;2.77;100.00
36972;BME280;40554;52.122;20.678;2023-02-02T11:09:39;99390.40;;;2.74;100.00
36972;BME280;40554;52.122;20.678;2023-02-02T11:14:46;99397.36;;;2.71;100.00
36972;BME280;40554;52.122;20.678;2023-02-02T11:17:05;99399.30;;;2.71;100.00
36972;BME280;40554;52.122;20.678;2023-02-02T11:19:33;99401.42;;;2.74;100.00
36972;BME280;40554;52.122;20.678;2023-02-02T11:21:55;99403.32;;;2.78;100.00
36972;BME280;40554;52.122;20.678;2023-02-02T11:27:21;99408.23;;;2.83;100.00
36972;BME280;40554;52.122;20.678;2023-02-02T11:31:55;99412.25;;;2.86;100.00
36972;BME280;40554;52.122;20.678;2023-02-02T11:34:30;99415.38;;;2.87;100.00
36972;BME280;40554;52.122;20.678;2023-02-02T11:37:10;99415.29;;;2.88;100.00
36972;BME280;40554;52.122;20.678;2023-02-02T11:39:30;99421.88;;;2.90;100.00
36972;BME280;40554;52.122;20.678;2023-02-02T11:41:46;99426.73;;;2.91;100.00
36972;BME280;40554;52.122;20.678;2023-02-02T11:44:03;99429.86;;;2.91;100.00
36972;BME280;40554;52.122;20.678;2023-02-02T11:46:28;99431.23;;;2.92;100.00
36972;BME280;40554;52.122;20.678;2023-02-02T11:49:01;99436.33;;;2.91;100.00
36972;BME280;40554;52.122;20.678;2023-02-02T11:51:23;99438.34;;;2.92;100.00
36972;BME280;40554;52.122;20.678;2023-02-02T11:56:01;99443.02;;;2.93;100.00
36972;BME280;40554;52.122;20.678;2023-02-02T11:58:22;99452.58;;;2.94;100.00
36972;BME280;40554;52.122;20.678;2023-02-02T12:00:47;99453.37;;;2.95;100.00
36972;BME280;40554;52.122;20.678;2023-02-02T12:03:30;99462.08;;;2.96;100.00
36972;BME280;40554;52.122;20.678;2023-02-02T12:05:47;99465.06;;;2.96;100.00
36972;BME280;40554;52.122;20.678;2023-02-02T12:08:07;99470.79;;;2.93;100.00
36972;BME280;40554;52.122;20.678;2023-02-02T12:10:31;99473.98;;;2.92;100.00
36972;BME280;40554;52.122;20.678;2023-02-02T12:12:58;99475.95;;;2.91;100.00
36972;BME280;40554;52.122;20.678;2023-02-02T12:15:46;99479.83;;;2.90;100.00
36972;BME280;40554;52.122;20.678;2023-02-02T12:21:04;99487.27;;;2.88;100.00
36972;BME280;40554;52.122;20.678;2023-02-02T12:23:31;99489.08;;;2.86;100.00
36972;BME280;40554;52.122;20.678;2023-02-02T12:31:26;99510.41;;;2.86;100.00
36972;BME280;40554;52.122;20.678;2023-02-02T12:33:57;99517.13;;;2.84;100.00
36972;BME280;40554;52.122;20.678;2023-02-02T12:36:36;99520.55;;;2.82;100.00
36972;BME280;40554;52.122;20.678;2023-02-02T12:49:51;99562.70;;;2.77;100.00
36972;BME280;40554;52.122;20.678;2023-02-02T12:55:27;99580.43;;;2.75;100.00
36972;BME280;40554;52.122;20.678;2023-02-02T13:08:49;99621.20;;;2.51;100.00
36972;BME280;40554;52.122;20.678;2023-02-02T13:11:13;99627.56;;;2.45;100.00
36972;BME280;40554;52.122;20.678;2023-02-02T13:13:48;99629.23;;;2.43;100.00
36972;BME280;40554;52.122;20.678;2023-02-02T13:16:10;99635.06;;;2.41;100.00
36972;BME280;40554;52.122;20.678;2023-02-02T13:18:35;99641.72;;;2.41;100.00
36972;BME280;40554;52.122;20.678;2023-02-02T13:21:06;99637.48;;;2.42;100.00
36972;BME280;40554;52.122;20.678;2023-02-02T13:23:27;99645.27;;;2.43;100.00
36972;BME280;40554;52.122;20.678;2023-02-02T13:26:08;99651.11;;;2.46;100.00
36972;BME280;40554;52.122;20.678;2023-02-02T13:30:56;99659.52;;;2.53;100.00
36972;BME280;40554;52.122;20.678;2023-02-02T13:33:27;99666.83;;;2.56;100.00
36972;BME280;40554;52.122;20.678;2023-02-02T13:35:55;99668.20;;;2.61;100.00